sensor_id;sensor_type;location;lat;lon;timestamp;pressure;altitude;pressure_sealevel;temperature;humidity
48796;BME280;34607;48.520;-1.330;2023-11-21T08:25:57;100573.00;;;10.68;100.00
48796;BME280;34607;48.520;-1.330;2023-11-21T08:28:24;100576.56;;;10.74;100.00
48796;BME280;34607;48.520;-1.330;2023-11-21T08:30:52;100588.69;;;10.75;100.00
48796;BME280;34607;48.520;-1.330;2023-11-21T08:33:19;100577.22;;;10.63;100.00
48796;BME280;34607;48.520;-1.330;2023-11-21T08:35:46;100580.47;;;10.53;100.00
48796;BME280;34607;48.520;-1.330;2023-11-21T08:38:13;100579.88;;;10.66;100.00
48796;BME280;34607;48.520;-1.330;2023-11-21T08:40:40;100584.16;;;10.64;100.00
48796;BME280;34607;48.520;-1.330;2023-11-21T08:43:09;100593.63;;;10.64;100.00
48796;BME280;34607;48.520;-1.330;2023-11-21T08:45:37;100598.78;;;10.62;100.00
48796;BME280;34607;48.520;-1.330;2023-11-21T08:48:05;100602.97;;;10.56;100.00
48796;BME280;34607;48.520;-1.330;2023-11-21T08:50:32;100606.31;;;10.52;100.00
48796;BME280;34607;48.520;-1.330;2023-11-21T08:52:59;100603.81;;;10.55;100.00
48796;BME280;34607;48.520;-1.330;2023-11-21T08:55:26;100602.31;;;10.66;100.00
48796;BME280;34607;48.520;-1.330;2023-11-21T08:57:54;100602.50;;;10.75;100.00
48796;BME280;34607;48.520;-1.330;2023-11-21T09:00:22;100607.78;;;10.80;100.00
48796;BME280;34607;48.520;-1.330;2023-11-21T09:02:49;100610.31;;;10.78;100.00
48796;BME280;34607;48.520;-1.330;2023-11-21T09:05:16;100608.72;;;10.85;100.00
48796;BME280;34607;48.520;-1.330;2023-11-21T09:07:44;100614.00;;;10.91;100.00
48796;BME280;34607;48.520;-1.330;2023-11-21T09:10:14;100617.53;;;10.95;100.00
48796;BME280;34607;48.520;-1.330;2023-11-21T09:12:41;100616.06;;;11.08;100.00
48796;BME280;34607;48.520;-1.330;2023-11-21T09:15:09;100623.84;;;11.08;100.00
48796;BME280;34607;48.520;-1.330;2023-11-21T09:17:38;100622.19;;;11.13;100.00
48796;BME280;34607;48.520;-1.330;2023-11-21T09:20:07;100629.84;;;11.06;100.00
48796;BME280;34607;48.520;-1.330;2023-11-21T09:22:35;100641.81;;;11.00;100.00
48796;BME280;34607;48.520;-1.330;2023-11-21T09:25:03;100644.38;;;10.98;100.00
48796;BME280;34607;48.520;-1.330;2023-11-21T09:27:31;100633.94;;;10.94;100.00
48796;BME280;34607;48.520;-1.330;2023-11-21T09:29:58;100643.59;;;11.02;100.00
48796;BME280;34607;48.520;-1.330;2023-11-21T09:32:25;100638.59;;;11.12;100.00
48796;BME280;34607;48.520;-1.330;2023-11-21T09:34:53;100648.97;;;11.13;100.00
48796;BME280;34607;48.520;-1.330;2023-11-21T09:37:24;100656.19;;;11.28;100.00
48796;BME280;34607;48.520;-1.330;2023-11-21T09:39:52;100655.44;;;11.35;100.00
48796;BME280;34607;48.520;-1.330;2023-11-21T09:42:23;100661.38;;;11.28;100.00
48796;BME280;34607;48.520;-1.330;2023-11-21T09:44:58;100660.56;;;11.32;100.00
48796;BME280;34607;48.520;-1.330;2023-11-21T09:47:30;100667.56;;;11.36;100.00
48796;BME280;34607;48.520;-1.330;2023-11-21T09:50:01;100665.19;;;11.49;100.00
48796;BME280;34607;48.520;-1.330;2023-11-21T09:52:29;100647.78;;;11.41;100.00
48796;BME280;34607;48.520;-1.330;2023-11-21T09:54:58;100662.69;;;11.53;100.00
48796;BME280;34607;48.520;-1.330;2023-11-21T09:57:27;100660.00;;;11.49;100.00
48796;BME280;34607;48.520;-1.330;2023-11-21T09:59:54;100680.91;;;11.58;100.00
48796;BME280;34607;48.520;-1.330;2023-11-21T10:02:26;100628.38;;;11.19;100.00
48796;BME280;34607;48.520;-1.330;2023-11-21T10:04:54;100684.25;;;11.51;100.00
48796;BME280;34607;48.520;-1.330;2023-11-21T10:07:23;100682.53;;;11.53;100.00
48796;BME280;34607;48.520;-1.330;2023-11-21T10:09:51;100692.09;;;11.55;100.00
48796;BME280;34607;48.520;-1.330;2023-11-21T10:12:20;100689.41;;;11.49;100.00
48796;BME280;34607;48.520;-1.330;2023-11-21T10:14:48;100696.38;;;11.52;100.00
48796;BME280;34607;48.520;-1.330;2023-11-21T10:17:18;100682.38;;;11.43;100.00
48796;BME280;34607;48.520;-1.330;2023-11-21T10:19:47;100712.47;;;11.35;100.00
48796;BME280;34607;48.520;-1.330;2023-11-21T10:22:14;100716.97;;;11.44;100.00
48796;BME280;34607;48.520;-1.330;2023-11-21T10:24:44;100703.72;;;11.29;100.00
48796;BME280;34607;48.520;-1.330;2023-11-21T10:27:11;100736.09;;;11.51;100.00
48796;BME280;34607;48.520;-1.330;2023-11-21T10:29:40;100721.31;;;11.45;100.00
48796;BME280;34607;48.520;-1.330;2023-11-21T10:32:07;100730.91;;;11.51;100.00
48796;BME280;34607;48.520;-1.330;2023-11-21T10:34:35;100739.81;;;11.64;100.00
48796;BME280;34607;48.520;-1.330;2023-11-21T10:37:11;100748.25;;;11.52;100.00
48796;BME280;34607;48.520;-1.330;2023-11-21T10:39:38;100743.09;;;11.55;100.00
48796;BME280;34607;48.520;-1.330;2023-11-21T10:42:09;100746.59;;;11.57;100.00
48796;BME280;34607;48.520;-1.330;2023-11-21T10:44:36;100743.28;;;11.64;100.00
48796;BME280;34607;48.520;-1.330;2023-11-21T10:47:03;100753.06;;;11.79;100.00
48796;BME280;34607;48.520;-1.330;2023-11-21T10:49:30;100748.81;;;11.83;100.00
48796;BME280;34607;48.520;-1.330;2023-11-21T10:51:57;100749.50;;;11.74;100.00
48796;BME280;34607;48.520;-1.330;2023-11-21T10:54:26;100744.31;;;11.75;100.00
48796;BME280;34607;48.520;-1.330;2023-11-21T10:56:56;100744.91;;;11.59;100.00
48796;BME280;34607;48.520;-1.330;2023-11-21T10:59:28;100718.63;;;11.40;100.00
48796;BME280;34607;48.520;-1.330;2023-11-21T11:01:57;100741.47;;;11.61;100.00
48796;BME280;34607;48.520;-1.330;2023-11-21T11:04:27;100746.78;;;11.68;100.00
48796;BME280;34607;48.520;-1.330;2023-11-21T11:06:57;100754.56;;;11.68;100.00
48796;BME280;34607;48.520;-1.330;2023-11-21T11:09:26;100742.72;;;11.82;100.00
48796;BME280;34607;48.520;-1.330;2023-11-21T11:11:53;100735.88;;;11.87;100.00
48796;BME280;34607;48.520;-1.330;2023-11-21T11:14:21;100761.03;;;11.90;100.00
48796;BME280;34607;48.520;-1.330;2023-11-21T11:16:54;100748.88;;;11.89;100.00
48796;BME280;34607;48.520;-1.330;2023-11-21T11:19:22;100751.66;;;11.96;100.00
48796;BME280;34607;48.520;-1.330;2023-11-21T11:21:56;100755.63;;;11.77;100.00
48796;BME280;34607;48.520;-1.330;2023-11-21T11:24:57;100747.66;;;11.68;100.00
48796;BME280;34607;48.520;-1.330;2023-11-21T11:27:37;100752.16;;;11.78;100.00
48796;BME280;34607;48.520;-1.330;2023-11-21T11:30:18;100754.72;;;11.77;100.00
48796;BME280;34607;48.520;-1.330;2023-11-21T11:32:57;100762.59;;;11.81;100.00
48796;BME280;34607;48.520;-1.330;2023-11-21T11:35:34;100758.41;;;11.88;100.00
48796;BME280;34607;48.520;-1.330;2023-11-21T11:38:05;100751.47;;;11.89;100.00
48796;BME280;34607;48.520;-1.330;2023-11-21T11:40:40;100764.44;;;11.87;100.00
48796;BME280;34607;48.520;-1.330;2023-11-21T11:43:08;100757.44;;;11.83;100.00
48796;BME280;34607;48.520;-1.330;2023-11-21T11:45:35;100760.03;;;11.83;100.00
48796;BME280;34607;48.520;-1.330;2023-11-21T11:48:11;100748.81;;;11.83;100.00
48796;BME280;34607;48.520;-1.330;2023-11-21T11:50:42;100764.09;;;11.67;100.00
48796;BME280;34607;48.520;-1.330;2023-11-21T11:53:33;100769.03;;;11.55;100.00
48796;BME280;34607;48.520;-1.330;2023-11-21T11:56:25;100773.16;;;11.43;100.00
48796;BME280;34607;48.520;-1.330;2023-11-21T11:58:54;100771.44;;;11.46;100.00
48796;BME280;34607;48.520;-1.330;2023-11-21T12:01:22;100782.03;;;11.14;100.00
48796;BME280;34607;48.520;-1.330;2023-11-21T12:04:24;100745.53;;;11.03;100.00
48796;BME280;34607;48.520;-1.330;2023-11-21T12:06:59;100783.75;;;11.13;100.00
48796;BME280;34607;48.520;-1.330;2023-11-21T12:09:29;100785.59;;;11.19;100.00
48796;BME280;34607;48.520;-1.330;2023-11-21T12:11:56;100782.94;;;11.14;100.00
48796;BME280;34607;48.520;-1.330;2023-11-21T12:14:24;100788.25;;;11.22;100.00
48796;BME280;34607;48.520;-1.330;2023-11-21T12:16:51;100790.03;;;11.23;100.00
48796;BME280;34607;48.520;-1.330;2023-11-21T12:19:19;100783.06;;;11.22;100.00
48796;BME280;34607;48.520;-1.330;2023-11-21T12:21:49;100782.34;;;11.29;100.00
48796;BME280;34607;48.520;-1.330;2023-11-21T12:24:17;100785.16;;;11.38;100.00
48796;BME280;34607;48.520;-1.330;2023-11-21T12:26:44;100786.16;;;11.45;100.00
48796;BME280;34607;48.520;-1.330;2023-11-21T12:29:11;100790.41;;;11.41;100.00
48796;BME280;34607;48.520;-1.330;2023-11-21T12:31:39;100782.47;;;11.35;100.00
48796;BME280;34607;48.520;-1.330;2023-11-21T12:34:06;100791.38;;;11.47;100.00
48796;BME280;34607;48.520;-1.330;2023-11-21T12:36:37;100789.38;;;11.33;100.00
48796;BME280;34607;48.520;-1.330;2023-11-21T12:39:06;100786.03;;;11.40;100.00
48796;BME280;34607;48.520;-1.330;2023-11-21T12:41:34;100792.03;;;11.36;100.00
48796;BME280;34607;48.520;-1.330;2023-11-21T12:44:02;100800.06;;;11.50;100.00
48796;BME280;34607;48.520;-1.330;2023-11-21T12:46:29;100803.66;;;11.57;100.00
48796;BME280;34607;48.520;-1.330;2023-11-21T12:48:58;100807.09;;;11.56;100.00
48796;BME280;34607;48.520;-1.330;2023-11-21T12:51:25;100810.44;;;11.50;100.00
48796;BME280;34607;48.520;-1.330;2023-11-21T12:53:53;100813.78;;;11.44;100.00
48796;BME280;34607;48.520;-1.330;2023-11-21T12:56:22;100812.94;;;11.46;100.00
48796;BME280;34607;48.520;-1.330;2023-11-21T12:58:50;100816.38;;;11.44;100.00
48796;BME280;34607;48.520;-1.330;2023-11-21T13:01:18;100814.72;;;11.47;100.00
48796;BME280;34607;48.520;-1.330;2023-11-21T13:03:48;100827.78;;;11.53;100.00
48796;BME280;34607;48.520;-1.330;2023-11-21T13:06:17;100826.22;;;11.61;100.00
48796;BME280;34607;48.520;-1.330;2023-11-21T13:08:44;100831.59;;;11.72;100.00
48796;BME280;34607;48.520;-1.330;2023-11-21T13:11:12;100822.28;;;11.81;100.00
48796;BME280;34607;48.520;-1.330;2023-11-21T13:13:42;100838.59;;;11.74;100.00
48796;BME280;34607;48.520;-1.330;2023-11-21T13:16:10;100836.06;;;11.77;100.00
48796;BME280;34607;48.520;-1.330;2023-11-21T13:18:38;100837.03;;;11.83;100.00
48796;BME280;34607;48.520;-1.330;2023-11-21T13:21:08;100845.47;;;11.72;100.00
48796;BME280;34607;48.520;-1.330;2023-11-21T13:23:39;100838.00;;;11.89;100.00
48796;BME280;34607;48.520;-1.330;2023-11-21T13:26:07;100839.59;;;11.81;100.00
48796;BME280;34607;48.520;-1.330;2023-11-21T13:28:35;100809.81;;;11.62;100.00
48796;BME280;34607;48.520;-1.330;2023-11-21T13:31:05;100849.22;;;11.88;100.00
48796;BME280;34607;48.520;-1.330;2023-11-21T13:33:47;100841.25;;;11.77;100.00
48796;BME280;34607;48.520;-1.330;2023-11-21T13:36:20;100852.06;;;11.56;100.00
48796;BME280;34607;48.520;-1.330;2023-11-21T13:38:49;100851.72;;;11.41;100.00
48796;BME280;34607;48.520;-1.330;2023-11-21T13:41:18;100851.03;;;11.48;100.00
48796;BME280;34607;48.520;-1.330;2023-11-21T13:43:45;100857.84;;;11.44;100.00
48796;BME280;34607;48.520;-1.330;2023-11-21T13:46:19;100860.38;;;11.40;100.00
48796;BME280;34607;48.520;-1.330;2023-11-21T13:48:49;100843.59;;;11.24;100.00
48796;BME280;34607;48.520;-1.330;2023-11-21T13:51:21;100864.59;;;11.35;100.00
48796;BME280;34607;48.520;-1.330;2023-11-21T13:53:57;100860.28;;;11.35;100.00
48796;BME280;34607;48.520;-1.330;2023-11-21T13:56:24;100865.44;;;11.35;100.00
48796;BME280;34607;48.520;-1.330;2023-11-21T13:58:54;100867.94;;;11.31;100.00
48796;BME280;34607;48.520;-1.330;2023-11-21T14:01:24;100872.41;;;11.36;100.00
48796;BME280;34607;48.520;-1.330;2023-11-21T14:04:20;100867.47;;;11.49;100.00
48796;BME280;34607;48.520;-1.330;2023-11-21T14:07:01;100872.25;;;11.30;100.00
48796;BME280;34607;48.520;-1.330;2023-11-21T14:09:46;100863.06;;;11.05;100.00
48796;BME280;34607;48.520;-1.330;2023-11-21T14:12:14;100867.34;;;11.03;100.00
48796;BME280;34607;48.520;-1.330;2023-11-21T14:14:41;100860.75;;;11.17;100.00
48796;BME280;34607;48.520;-1.330;2023-11-21T14:17:11;100860.91;;;11.25;100.00
48796;BME280;34607;48.520;-1.330;2023-11-21T14:19:38;100863.44;;;11.22;100.00
48796;BME280;34607;48.520;-1.330;2023-11-21T14:22:09;100871.31;;;11.27;100.00
48796;BME280;34607;48.520;-1.330;2023-11-21T14:24:36;100870.72;;;11.38;100.00
48796;BME280;34607;48.520;-1.330;2023-11-21T14:27:09;100869.75;;;11.33;100.00
48796;BME280;34607;48.520;-1.330;2023-11-21T14:29:36;100880.22;;;11.39;100.00
48796;BME280;34607;48.520;-1.330;2023-11-21T14:32:05;100879.56;;;11.50;100.00
48796;BME280;34607;48.520;-1.330;2023-11-21T14:34:35;100890.09;;;11.56;100.00
48796;BME280;34607;48.520;-1.330;2023-11-21T14:37:02;100895.28;;;11.56;100.00
48796;BME280;34607;48.520;-1.330;2023-11-21T14:39:29;100890.97;;;11.56;100.00
48796;BME280;34607;48.520;-1.330;2023-11-21T14:42:00;100897.75;;;11.51;100.00
48796;BME280;34607;48.520;-1.330;2023-11-21T14:44:28;100900.41;;;11.53;100.00
48796;BME280;34607;48.520;-1.330;2023-11-21T14:47:01;100903.19;;;11.62;100.00
48796;BME280;34607;48.520;-1.330;2023-11-21T14:49:33;100906.63;;;11.61;100.00
48796;BME280;34607;48.520;-1.330;2023-11-21T14:52:15;100910.91;;;11.59;100.00
48796;BME280;34607;48.520;-1.330;2023-11-21T14:54:57;100916.03;;;11.56;100.00
48796;BME280;34607;48.520;-1.330;2023-11-21T14:57:44;100917.72;;;11.54;100.00
48796;BME280;34607;48.520;-1.330;2023-11-21T15:00:16;100914.25;;;11.55;100.00
48796;BME280;34607;48.520;-1.330;2023-11-21T15:02:57;100928.34;;;11.66;100.00
48796;BME280;34607;48.520;-1.330;2023-11-21T15:05:24;100900.50;;;11.57;100.00
48796;BME280;34607;48.520;-1.330;2023-11-21T15:07:52;100933.34;;;11.57;100.00
48796;BME280;34607;48.520;-1.330;2023-11-21T15:10:22;100932.72;;;11.29;100.00
48796;BME280;34607;48.520;-1.330;2023-11-21T15:12:57;100937.91;;;11.29;100.00
48796;BME280;34607;48.520;-1.330;2023-11-21T15:15:24;100929.28;;;11.30;100.00
48796;BME280;34607;48.520;-1.330;2023-11-21T15:17:50;100963.75;;;11.24;100.00
48796;BME280;34607;48.520;-1.330;2023-11-21T15:20:17;100966.84;;;11.10;100.00
48796;BME280;34607;48.520;-1.330;2023-11-21T15:22:46;100958.28;;;11.14;100.00
48796;BME280;34607;48.520;-1.330;2023-11-21T15:25:15;100966.00;;;11.11;100.00
48796;BME280;34607;48.520;-1.330;2023-11-21T15:27:42;100960.13;;;11.18;100.00
48796;BME280;34607;48.520;-1.330;2023-11-21T15:30:09;100962.59;;;11.13;100.00
48796;BME280;34607;48.520;-1.330;2023-11-21T15:32:36;100975.41;;;11.05;100.00
48796;BME280;34607;48.520;-1.330;2023-11-21T15:35:05;100968.38;;;11.01;100.00
48796;BME280;34607;48.520;-1.330;2023-11-21T15:37:35;100971.13;;;11.08;100.00
48796;BME280;34607;48.520;-1.330;2023-11-21T15:40:02;100974.56;;;11.08;100.00
48796;BME280;34607;48.520;-1.330;2023-11-21T15:42:32;100983.25;;;11.10;100.00
48796;BME280;34607;48.520;-1.330;2023-11-21T15:45:00;100986.75;;;11.11;100.00
48796;BME280;34607;48.520;-1.330;2023-11-21T15:47:27;100982.00;;;10.94;100.00
48796;BME280;34607;48.520;-1.330;2023-11-21T15:49:54;100981.34;;;10.68;100.00
48796;BME280;34607;48.520;-1.330;2023-11-21T15:52:21;100986.41;;;10.63;100.00
48796;BME280;34607;48.520;-1.330;2023-11-21T15:54:48;100982.00;;;10.59;100.00
48796;BME280;34607;48.520;-1.330;2023-11-21T15:57:15;100992.41;;;10.61;100.00
48796;BME280;34607;48.520;-1.330;2023-11-21T15:59:44;100994.91;;;10.58;100.00
48796;BME280;34607;48.520;-1.330;2023-11-21T16:02:11;101018.00;;;10.50;100.00
48796;BME280;34607;48.520;-1.330;2023-11-21T16:04:40;101024.09;;;10.52;100.00
48796;BME280;34607;48.520;-1.330;2023-11-21T16:07:08;101022.50;;;10.57;100.00
48796;BME280;34607;48.520;-1.330;2023-11-21T16:09:36;101031.06;;;10.55;100.00
48796;BME280;34607;48.520;-1.330;2023-11-21T16:12:06;101032.84;;;10.56;100.00
48796;BME280;34607;48.520;-1.330;2023-11-21T16:14:34;101035.63;;;10.32;100.00
48796;BME280;34607;48.520;-1.330;2023-11-21T16:17:06;101029.69;;;10.36;100.00
48796;BME280;34607;48.520;-1.330;2023-11-21T16:19:34;101019.56;;;10.45;100.00
48796;BME280;34607;48.520;-1.330;2023-11-21T16:22:01;101026.28;;;10.38;100.00
48796;BME280;34607;48.520;-1.330;2023-11-21T16:24:28;101029.47;;;10.29;100.00
48796;BME280;34607;48.520;-1.330;2023-11-21T16:26:56;101032.09;;;10.31;100.00
48796;BME280;34607;48.520;-1.330;2023-11-21T16:29:23;101042.34;;;10.26;100.00
48796;BME280;34607;48.520;-1.330;2023-11-21T16:31:51;101035.41;;;10.25;100.00
48796;BME280;34607;48.520;-1.330;2023-11-21T16:34:21;101037.22;;;10.29;100.00
48796;BME280;34607;48.520;-1.330;2023-11-21T16:36:48;101048.19;;;10.21;100.00
48796;BME280;34607;48.520;-1.330;2023-11-21T16:39:16;101051.69;;;10.21;100.00
48796;BME280;34607;48.520;-1.330;2023-11-21T16:41:45;101053.28;;;10.18;100.00
48796;BME280;34607;48.520;-1.330;2023-11-21T16:44:13;101030.75;;;10.13;100.00
48796;BME280;34607;48.520;-1.330;2023-11-21T16:46:44;101042.19;;;10.22;100.00
48796;BME280;34607;48.520;-1.330;2023-11-21T16:49:12;101036.22;;;10.24;100.00
48796;BME280;34607;48.520;-1.330;2023-11-21T16:51:42;101014.97;;;10.04;100.00
48796;BME280;34607;48.520;-1.330;2023-11-21T16:54:09;101041.19;;;10.17;100.00
48796;BME280;34607;48.520;-1.330;2023-11-21T16:56:36;101048.19;;;10.21;100.00
48796;BME280;34607;48.520;-1.330;2023-11-21T16:59:03;101036.78;;;10.14;100.00
48796;BME280;34607;48.520;-1.330;2023-11-21T17:01:31;101036.97;;;10.20;100.00
48796;BME280;34607;48.520;-1.330;2023-11-21T17:03:58;101040.63;;;10.27;100.00
48796;BME280;34607;48.520;-1.330;2023-11-21T17:06:25;101043.94;;;10.21;100.00
48796;BME280;34607;48.520;-1.330;2023-11-21T17:08:54;101062.66;;;10.14;100.00
48796;BME280;34607;48.520;-1.330;2023-11-21T17:11:21;101065.41;;;10.19;100.00
48796;BME280;34607;48.520;-1.330;2023-11-21T17:13:48;101064.47;;;10.17;100.00
48796;BME280;34607;48.520;-1.330;2023-11-21T17:16:16;101064.34;;;10.12;100.00
48796;BME280;34607;48.520;-1.330;2023-11-21T17:18:43;101065.59;;;9.96;100.00
48796;BME280;34607;48.520;-1.330;2023-11-21T17:21:10;101070.16;;;10.05;100.00
48796;BME280;34607;48.520;-1.330;2023-11-21T17:23:37;101074.34;;;10.00;100.00
48796;BME280;34607;48.520;-1.330;2023-11-21T17:26:06;101082.44;;;10.12;100.00
48796;BME280;34607;48.520;-1.330;2023-11-21T17:28:33;101085.97;;;10.14;100.00
48796;BME280;34607;48.520;-1.330;2023-11-21T17:31:00;101100.66;;;10.15;100.00
48796;BME280;34607;48.520;-1.330;2023-11-21T17:33:27;101114.81;;;10.26;100.00
48796;BME280;34607;48.520;-1.330;2023-11-21T17:35:54;101127.88;;;10.31;100.00
48796;BME280;34607;48.520;-1.330;2023-11-21T17:38:21;101126.38;;;10.38;100.00
48796;BME280;34607;48.520;-1.330;2023-11-21T17:40:48;101121.78;;;10.29;100.00
48796;BME280;34607;48.520;-1.330;2023-11-21T17:43:17;101136.31;;;10.24;100.00
48796;BME280;34607;48.520;-1.330;2023-11-21T17:45:44;101131.13;;;10.24;100.00
48796;BME280;34607;48.520;-1.330;2023-11-21T17:48:12;101138.69;;;10.18;100.00
48796;BME280;34607;48.520;-1.330;2023-11-21T17:50:40;101145.22;;;10.05;100.00
48796;BME280;34607;48.520;-1.330;2023-11-21T17:53:07;101146.28;;;9.84;100.00
48796;BME280;34607;48.520;-1.330;2023-11-21T17:55:34;101149.31;;;9.98;100.00
48796;BME280;34607;48.520;-1.330;2023-11-21T17:58:01;101157.72;;;9.91;100.00
48796;BME280;34607;48.520;-1.330;2023-11-21T18:00:30;101158.72;;;9.69;100.00
48796;BME280;34607;48.520;-1.330;2023-11-21T18:02:57;101152.09;;;9.77;100.00
48796;BME280;34607;48.520;-1.330;2023-11-21T18:05:25;101157.81;;;9.94;100.00
48796;BME280;34607;48.520;-1.330;2023-11-21T18:07:52;101156.31;;;10.02;100.00
48796;BME280;34607;48.520;-1.330;2023-11-21T18:10:19;101153.34;;;9.90;100.00
48796;BME280;34607;48.520;-1.330;2023-11-21T18:12:46;101157.31;;;9.79;100.00
48796;BME280;34607;48.520;-1.330;2023-11-21T18:15:13;101161.81;;;9.84;100.00
48796;BME280;34607;48.520;-1.330;2023-11-21T18:17:44;101144.97;;;9.70;100.00
48796;BME280;34607;48.520;-1.330;2023-11-21T18:20:11;101166.38;;;9.66;100.00
48796;BME280;34607;48.520;-1.330;2023-11-21T18:22:38;101166.06;;;9.82;100.00
48796;BME280;34607;48.520;-1.330;2023-11-21T18:25:06;101174.84;;;9.87;100.00
48796;BME280;34607;48.520;-1.330;2023-11-21T18:27:33;101176.34;;;9.81;100.00
48796;BME280;34607;48.520;-1.330;2023-11-21T18:30:01;101176.72;;;9.66;100.00
48796;BME280;34607;48.520;-1.330;2023-11-21T18:32:29;101177.00;;;9.73;100.00
48796;BME280;34607;48.520;-1.330;2023-11-21T18:34:57;101193.47;;;9.77;100.00
48796;BME280;34607;48.520;-1.330;2023-11-21T18:37:24;101203.03;;;9.80;100.00
48796;BME280;34607;48.520;-1.330;2023-11-21T18:39:52;101203.94;;;9.80;100.00
48796;BME280;34607;48.520;-1.330;2023-11-21T18:42:19;101196.88;;;9.76;100.00
48796;BME280;34607;48.520;-1.330;2023-11-21T18:44:47;101210.16;;;9.85;100.00
48796;BME280;34607;48.520;-1.330;2023-11-21T18:47:14;101207.13;;;9.73;100.00
48796;BME280;34607;48.520;-1.330;2023-11-21T18:49:41;101220.69;;;9.66;100.00
48796;BME280;34607;48.520;-1.330;2023-11-21T18:52:10;101216.75;;;9.77;100.00
48796;BME280;34607;48.520;-1.330;2023-11-21T18:54:40;101201.81;;;9.68;100.00
48796;BME280;34607;48.520;-1.330;2023-11-21T18:57:08;101228.66;;;9.72;100.00
48796;BME280;34607;48.520;-1.330;2023-11-21T18:59:35;101226.25;;;9.78;100.00
48796;BME280;34607;48.520;-1.330;2023-11-21T19:02:03;101238.59;;;9.85;100.00
48796;BME280;34607;48.520;-1.330;2023-11-21T19:04:34;101247.28;;;9.87;100.00
48796;BME280;34607;48.520;-1.330;2023-11-21T19:07:00;101243.91;;;9.90;100.00
48796;BME280;34607;48.520;-1.330;2023-11-21T19:09:29;101243.91;;;9.90;100.00
48796;BME280;34607;48.520;-1.330;2023-11-21T19:11:57;101235.38;;;9.92;100.00
48796;BME280;34607;48.520;-1.330;2023-11-21T19:14:24;101233.72;;;9.94;100.00
48796;BME280;34607;48.520;-1.330;2023-11-21T19:16:51;101230.91;;;9.88;100.00
48796;BME280;34607;48.520;-1.330;2023-11-21T19:19:18;101235.50;;;9.97;100.00
48796;BME280;34607;48.520;-1.330;2023-11-21T19:21:45;101244.19;;;9.98;100.00
48796;BME280;34607;48.520;-1.330;2023-11-21T19:24:12;101240.84;;;10.02;100.00
48796;BME280;34607;48.520;-1.330;2023-11-21T19:26:40;101247.38;;;10.16;100.00
48796;BME280;34607;48.520;-1.330;2023-11-21T19:29:08;101248.81;;;10.08;100.00
48796;BME280;34607;48.520;-1.330;2023-11-21T19:31:35;101250.56;;;10.09;100.00
48796;BME280;34607;48.520;-1.330;2023-11-21T19:34:02;101257.47;;;10.08;100.00
48796;BME280;34607;48.520;-1.330;2023-11-21T19:36:30;101247.47;;;9.93;100.00
48796;BME280;34607;48.520;-1.330;2023-11-21T19:38:57;101248.25;;;9.91;100.00
48796;BME280;34607;48.520;-1.330;2023-11-21T19:41:24;101259.69;;;9.98;100.00
48796;BME280;34607;48.520;-1.330;2023-11-21T19:43:54;101242.47;;;9.98;100.00
48796;BME280;34607;48.520;-1.330;2023-11-21T19:46:24;101263.16;;;9.98;100.00
48796;BME280;34607;48.520;-1.330;2023-11-21T19:48:51;101259.75;;;9.99;100.00
48796;BME280;34607;48.520;-1.330;2023-11-21T19:51:19;101267.56;;;10.01;100.00
48796;BME280;34607;48.520;-1.330;2023-11-21T19:53:47;101275.34;;;10.01;100.00
48796;BME280;34607;48.520;-1.330;2023-11-21T19:56:14;101269.41;;;10.05;100.00
48796;BME280;34607;48.520;-1.330;2023-11-21T19:58:41;101262.84;;;10.15;100.00
48796;BME280;34607;48.520;-1.330;2023-11-21T20:01:09;101277.47;;;10.14;100.00
48796;BME280;34607;48.520;-1.330;2023-11-21T20:03:36;101266.31;;;10.15;100.00
48796;BME280;34607;48.520;-1.330;2023-11-21T20:06:04;101269.97;;;10.22;100.00
48796;BME280;34607;48.520;-1.330;2023-11-21T20:08:32;101279.53;;;10.24;100.00
48796;BME280;34607;48.520;-1.330;2023-11-21T20:11:00;101276.13;;;10.25;100.00
48796;BME280;34607;48.520;-1.330;2023-11-21T20:13:27;101270.34;;;10.33;100.00
48796;BME280;34607;48.520;-1.330;2023-11-21T20:15:54;101275.97;;;10.21;100.00
48796;BME280;34607;48.520;-1.330;2023-11-21T20:18:22;101281.34;;;10.27;100.00
48796;BME280;34607;48.520;-1.330;2023-11-21T20:20:49;101282.56;;;10.37;100.00
48796;BME280;34607;48.520;-1.330;2023-11-21T20:23:16;101276.75;;;10.44;100.00
48796;BME280;34607;48.520;-1.330;2023-11-21T20:25:45;101274.94;;;10.41;100.00
48796;BME280;34607;48.520;-1.330;2023-11-21T20:28:12;101284.13;;;10.32;100.00
48796;BME280;34607;48.520;-1.330;2023-11-21T20:30:40;101281.56;;;10.32;100.00
48796;BME280;34607;48.520;-1.330;2023-11-21T20:33:07;101278.97;;;10.32;100.00
48796;BME280;34607;48.520;-1.330;2023-11-21T20:35:35;101252.50;;;10.15;100.00
48796;BME280;34607;48.520;-1.330;2023-11-21T20:38:03;101227.81;;;9.99;100.00
48796;BME280;34607;48.520;-1.330;2023-11-21T20:40:30;101287.22;;;10.21;100.00
48796;BME280;34607;48.520;-1.330;2023-11-21T20:42:57;101258.03;;;10.00;100.00
48796;BME280;34607;48.520;-1.330;2023-11-21T20:45:28;101292.28;;;10.18;100.00
48796;BME280;34607;48.520;-1.330;2023-11-21T20:47:55;101291.56;;;10.22;100.00
48796;BME280;34607;48.520;-1.330;2023-11-21T20:50:22;101289.88;;;10.24;100.00
48796;BME280;34607;48.520;-1.330;2023-11-21T20:52:51;101290.19;;;10.32;100.00
48796;BME280;34607;48.520;-1.330;2023-11-21T20:55:18;101287.13;;;10.44;100.00
48796;BME280;34607;48.520;-1.330;2023-11-21T20:57:46;101292.56;;;10.53;100.00
48796;BME280;34607;48.520;-1.330;2023-11-21T21:00:14;101289.38;;;10.35;100.00
48796;BME280;34607;48.520;-1.330;2023-11-21T21:02:43;101328.06;;;10.30;100.00
48796;BME280;34607;48.520;-1.330;2023-11-21T21:05:12;101331.41;;;10.27;100.00